Latest Weather Observations for Edinburgh

IDS60901

Issued at 6:01 pm CDT Friday 14 December 2018 (issued every 10 minutes, with the page automatically refreshed every 10 minutes)

About weather observations | Map of Adelaide area stations | Latest observations for Adelaide area | Other Formats
Station Details ID: 023083 Name: EDINBURGH RAAF Lat: -34.71 Lon: 138.62 Height: 16.54 m
Data from the previous 72 hours. | See also: Recent months at Edinburgh
Date/Time
CDT
Temp
°C
App
Temp
°C
Dew
Point
°C
Rel
Hum
%
Delta-T
°C
Wind Press
QNH
hPa
Press
MSL
hPa
Rain since
9am
mm
Dir  Spd
km/h
Gust
km/h
Spd
kts
Gust
kts
14/06:00pm 19.1 14.5 13.5 70 3.2 S 30 37 16 20 1004.1 1004.1 0.0
14/05:30pm 19.4 14.5 13.8 70 3.2 S 32 41 17 22 1004.2 1004.2 0.0
14/05:00pm 20.3 16.3 14.2 68 3.5 S 28 39 15 21 1003.9 1003.9 0.0
14/04:30pm 21.0 15.7 14.2 65 4.0 SSW 35 46 19 25 1003.9 1003.9 0.0
14/04:00pm 22.5 17.3 14.4 60 4.8 SSW 35 43 19 23 1003.6 1003.6 0.0
14/03:30pm 23.8 18.9 13.6 52 6.0 S 32 46 17 25 1003.4 1003.4 0.0
14/03:00pm 22.4 18.6 13.7 58 5.1 S 26 41 14 22 1003.8 1003.8 0.0
14/02:30pm 22.5 20.4 15.1 63 4.4 S 20 30 11 16 1003.6 1003.6 0.0
14/02:00pm 20.7 16.6 14.8 69 3.5 S 30 41 16 22 1004.2 1004.2 0.0
14/01:30pm 20.6 16.0 14.5 68 3.6 SW 32 43 17 23 1004.2 1004.2 0.0
14/01:00pm 20.6 15.9 13.3 63 4.2 SSW 30 41 16 22 1004.1 1004.1 0.0
14/12:30pm 21.8 16.6 13.4 59 4.9 SSW 33 41 18 22 1003.7 1003.7 0.0
14/12:00pm 20.8 15.7 12.0 57 4.9 SSW 30 44 16 24 1004.0 1004.0 0.0
14/11:30am 20.0 16.0 11.8 59 4.6 SSW 24 41 13 22 1003.9 1003.9 0.0
14/11:00am 19.8 17.0 11.3 58 4.7 S 17 32 9 17 1004.4 1004.4 0.0
14/10:30am 18.5 16.1 12.7 69 3.3 SE 17 33 9 18 1004.5 1004.5 0.0
14/10:00am 19.4 15.6 14.6 74 2.8 SSW 28 35 15 19 1003.9 1003.9 0.0
14/09:35am 18.3 13.6 14.4 78 2.2 S 32 41 17 22 1003.4 1003.4 0.0
14/09:30am 18.8 14.1 14.9 78 2.3 SSW 33 41 18 22 1003.3 1003.3 0.0
14/09:00am 17.0 12.2 14.1 83 1.7 SSW 32 43 17 23 1003.5 1003.5 5.6
14/08:30am 16.2 10.4 13.9 86 1.3 SSW 37 50 20 27 1003.4 1003.4 5.6
14/08:00am 15.6 9.2 13.3 86 1.3 SSW 39 50 21 27 1003.4 1003.4 5.6
14/07:30am 15.7 9.0 13.4 86 1.3 SSW 41 54 22 29 1003.4 1003.4 5.6
14/07:00am 15.1 9.0 13.1 88 1.1 SSW 37 46 20 25 1003.3 1003.3 5.6
14/06:30am 14.5 7.6 12.7 89 1.0 SSW 41 59 22 32 1003.4 1003.4 5.4
14/06:25am 14.5 7.6 12.7 89 1.0 SSW 41 59 22 32 1003.3 1003.3 5.4
14/06:00am 14.2 6.2 12.4 89 1.0 SW 46 59 25 32 1003.0 1003.0 5.4
14/05:36am 14.2 6.5 12.2 88 1.1 SSW 44 65 24 35 1003.3 1003.3 5.2
14/05:30am 14.1 6.4 12.1 88 1.1 SSW 44 56 24 30 1003.4 1003.4 5.2
14/05:05am 13.7 6.2 12.1 90 0.9 SSW 43 63 23 34 1003.8 1003.8 5.0
14/05:00am 13.6 6.1 12.0 90 0.9 SW 43 57 23 31 1003.8 1003.8 5.0
14/04:44am 13.5 6.3 11.9 90 0.9 SSW 41 59 22 32 1004.1 1004.1 5.0
14/04:30am 13.4 5.6 11.8 90 0.9 SW 44 56 24 30 1004.2 1004.2 4.8
14/04:00am 13.3 6.1 11.9 91 0.7 SW 41 56 22 30 1004.6 1004.6 4.4
14/03:30am 13.1 5.4 11.5 90 0.9 SSW 43 54 23 29 1005.0 1005.0 4.0
14/03:00am 13.2 5.5 11.6 90 0.9 SW 43 63 23 34 1005.5 1005.5 3.6
14/02:46am 13.0 5.3 11.4 90 0.8 SW 43 61 23 33 1005.8 1005.8 3.6
14/02:30am 12.9 5.9 11.1 89 0.9 SW 39 54 21 29 1006.0 1006.0 3.2
14/02:23am 12.9 5.4 11.0 88 1.0 SSW 41 59 22 32 1006.4 1006.4 3.2
14/02:07am 12.9 5.4 11.0 88 1.0 SW 41 54 22 29 1006.7 1006.7 3.0
14/02:00am 13.0 6.0 11.1 88 1.0 SSW 39 52 21 28 1006.9 1006.9 2.6
14/01:30am 12.5 4.3 10.4 87 1.1 SSW 44 63 24 34 1007.3 1007.3 2.2
14/01:26am 12.6 3.9 10.1 85 1.3 SSW 46 63 25 34 1007.4 1007.4 2.2
14/01:19am 12.8 4.1 10.0 83 1.4 SSW 46 59 25 32 1007.4 1007.4 2.2
14/01:05am 12.9 4.6 10.1 83 1.4 SW 44 63 24 34 1007.6 1007.6 2.2
14/01:00am 12.8 4.1 9.8 82 1.5 SW 46 63 25 34 1007.5 1007.5 2.2
14/12:59am 12.9 4.1 9.7 81 1.6 SW 46 63 25 34 1007.4 1007.4 2.0
14/12:30am 13.5 4.6 9.2 75 2.2 SW 46 65 25 35 1007.9 1007.9 2.0
14/12:23am 13.7 5.1 9.0 73 2.4 SW 44 65 24 35 1007.7 1007.7 2.0
14/12:00am 14.4 5.1 7.7 64 3.3 SSW 46 61 25 33 1008.3 1008.3 2.0
 
Date/Time
CDT
Temp
°C
App
Temp
°C
Dew
Point
°C
Rel
Hum
%
Delta-T
°C
Wind Press
QNH
hPa
Press
MSL
hPa
Rain since
9am
mm
Dir  Spd
km/h
Gust
km/h
Spd
kts
Gust
kts
13/11:47pm 14.4 5.6 7.2 62 3.5 SSW 43 61 23 33 1008.2 1008.2 2.0
13/11:30pm 14.3 5.6 7.8 65 3.2 SW 43 56 23 30 1008.5 1008.5 2.0
13/11:00pm 13.8 6.0 8.4 70 2.7 SSW 39 50 21 27 1009.4 1009.3 2.0
13/10:30pm 13.1 5.9 9.0 76 2.1 S 37 50 20 27 1009.8 1009.7 2.0
13/10:00pm 13.5 6.9 8.4 71 2.5 S 33 44 18 24 1010.2 1010.1 2.0
13/09:30pm 14.6 6.4 6.4 58 4.0 SSW 39 57 21 31 1010.1 1010.0 2.0
13/09:00pm 14.1 7.1 6.7 61 3.6 SSW 33 54 18 29 1010.3 1010.2 2.0
13/08:36pm 14.4 6.8 6.0 57 4.0 SSW 35 54 19 29 1010.1 1010.0 2.0
13/08:30pm 14.4 7.2 6.0 57 4.0 SSW 33 46 18 25 1010.2 1010.1 2.0
13/08:10pm 14.6 5.8 5.7 55 4.2 SSW 41 61 22 33 1010.0 1009.9 2.0
13/08:00pm 14.5 6.2 6.3 58 3.9 SSW 39 56 21 30 1010.1 1010.0 2.0
13/07:38pm 14.9 6.7 6.5 57 4.1 SSW 39 57 21 31 1010.1 1010.0 2.0
13/07:30pm 14.9 6.6 6.2 56 4.2 SSW 39 56 21 30 1009.9 1009.8 2.0
13/07:03pm 14.9 5.2 6.0 55 4.3 SSW 46 65 25 35 1009.7 1009.6 2.0
13/07:00pm 15.0 4.6 6.0 55 4.3 SW 50 65 27 35 1009.6 1009.5 2.0
13/06:30pm 14.4 5.3 5.7 56 4.1 SSW 43 61 23 33 1009.4 1009.3 2.0
13/06:00pm 16.0 5.5 5.6 50 5.0 SW 50 69 27 37 1009.1 1009.0 2.0
13/05:30pm 16.5 7.4 5.8 49 5.2 SSW 43 70 23 38 1009.3 1009.2 2.0
13/05:03pm 16.8 6.7 3.8 42 6.0 SSW 46 65 25 35 1009.0 1008.9 2.0
13/05:00pm 16.5 5.6 3.6 42 6.0 SSW 50 65 27 35 1009.0 1008.9 2.0
13/04:51pm 17.3 6.3 3.2 39 6.5 SW 50 69 27 37 1008.9 1008.8 2.0
13/04:30pm 16.7 7.0 5.9 49 5.2 SSW 46 61 25 33 1009.0 1008.9 2.0
13/04:00pm 12.5 4.0 8.4 76 2.0 SSW 43 63 23 34 1009.6 1009.5 2.0
13/03:46pm 15.1 7.0 8.8 66 3.2 SSW 41 59 22 32 1009.2 1009.1 2.0
13/03:41pm 15.1 6.3 9.5 69 2.9 SSW 46 61 25 33 1009.2 1009.1 2.0
13/03:30pm 13.5 3.6 9.6 77 2.0 SSW 52 82 28 44 1009.2 1009.1 2.0
13/03:25pm 12.6 1.2 9.1 79 1.8 SW 59 83 32 45 1009.1 1009.0 2.0
13/03:12pm 17.1 6.3 6.0 48 5.4 SSW 52 70 28 38 1008.8 1008.7 1.6
13/03:00pm 16.8 6.9 4.8 45 5.7 SSW 46 61 25 33 1008.8 1008.7 1.6
13/02:38pm 14.1 2.5 6.5 60 3.7 SSW 57 83 31 45 1009.3 1009.2 1.6
13/02:30pm 16.4 6.2 6.8 53 4.7 SSW 50 78 27 42 1008.4 1008.4 1.6
13/02:25pm 16.1 9.2 7.3 56 4.4 SSW 33 63 18 34 1008.7 1008.6 1.6
13/02:23pm 15.8 10.0 8.1 60 3.9 S 28 56 15 30 1008.9 1008.8 1.6
13/02:06pm 13.1 2.6 7.3 68 2.8 SSW 52 74 28 40 1009.2 1009.1 1.6
13/02:04pm 13.5 2.8 7.9 69 2.8 SSW 54 74 29 40 1009.2 1009.1 1.6
13/02:00pm 15.9 5.9 6.3 53 4.7 SSW 48 72 26 39 1008.5 1008.5 1.6
13/01:58pm 16.2 6.6 6.1 51 4.9 SSW 46 69 25 37 1008.4 1008.4 1.6
13/01:35pm 14.4 6.1 9.4 72 2.6 SSW 43 67 23 36 1009.2 1009.1 1.6
13/01:30pm 14.2 3.9 8.2 67 3.0 SSW 52 67 28 36 1009.2 1009.1 1.6
13/01:00pm 16.1 4.7 5.1 48 5.2 SSW 54 74 29 40 1008.4 1008.4 1.6
13/12:39pm 15.6 4.6 6.9 56 4.3 SSW 54 72 29 39 1008.8 1008.7 1.6
13/12:30pm 15.1 4.4 7.9 62 3.6 SSW 54 69 29 37 1008.7 1008.6 1.6
13/12:13pm 14.0 4.8 7.8 66 3.1 SSW 46 83 25 45 1008.1 1008.1 1.6
13/12:12pm 14.7 5.9 8.0 64 3.3 SSW 44 83 24 45 1008.2 1008.2 1.6
13/12:08pm 16.9 8.0 9.1 60 4.0 SSW 46 65 25 35 1008.3 1008.3 1.6
13/12:00pm 16.4 6.7 8.9 61 3.9 SSW 50 61 27 33 1008.3 1008.3 1.6
13/11:30am 12.9 3.9 9.0 77 2.0 SSW 46 65 25 35 1008.4 1008.4 1.6
13/11:28am 12.6 3.9 8.3 75 2.1 SSW 44 65 24 35 1008.5 1008.5 1.6
13/11:12am 12.2 3.4 9.6 84 1.3 SSW 46 67 25 36 1008.4 1008.4 1.2
13/11:09am 12.0 3.9 8.8 81 1.6 SSW 41 67 22 36 1008.4 1008.4 1.0
13/11:07am 12.2 4.9 8.7 79 1.7 SSW 37 67 20 36 1008.3 1008.3 0.8
13/11:00am 12.9 6.6 9.7 81 1.6 S 33 52 18 28 1008.3 1008.3 0.4
13/10:51am 13.0 4.1 7.7 70 2.6 SSW 44 61 24 33 1008.2 1008.2 0.2
13/10:30am 16.6 6.8 7.0 53 4.8 SW 48 67 26 36 1007.9 1007.9 0.0
13/10:00am 15.6 5.9 5.8 52 4.7 SSW 46 65 25 35 1008.0 1008.0 0.0
13/09:30am 13.2 3.3 8.3 72 2.4 SSW 50 78 27 42 1008.0 1008.0 0.0
13/09:04am 15.6 5.4 5.2 50 4.9 SSW 48 67 26 36 1007.4 1007.4 0.0
13/09:00am 15.6 6.4 6.3 54 4.5 SSW 44 59 24 32 1007.6 1007.6 4.0
13/08:30am 15.6 5.8 7.1 57 4.2 SSW 48 69 26 37 1007.4 1007.4 4.0
13/08:01am 15.0 6.4 8.0 63 3.5 SSW 43 63 23 34 1007.1 1007.1 4.0
13/08:00am 15.4 7.1 7.7 60 3.8 SSW 41 56 22 30 1007.2 1007.2 4.0
13/07:30am 15.0 6.4 8.0 63 3.5 SSW 43 61 23 33 1007.2 1007.2 4.0
13/07:03am 15.0 7.4 9.1 68 3.0 SSW 39 57 21 31 1007.2 1007.2 4.0
13/07:00am 15.1 7.7 9.7 70 2.8 SSW 39 54 21 29 1007.1 1007.1 4.0
13/06:30am 14.5 5.5 8.7 68 2.9 SSW 46 65 25 35 1006.8 1006.8 4.0
13/06:02am 14.7 5.8 9.1 69 2.9 SSW 46 65 25 35 1006.1 1006.1 4.0
13/06:00am 14.6 6.1 9.4 71 2.7 SSW 44 59 24 32 1006.3 1006.3 4.0
13/05:46am 14.6 7.5 11.0 79 1.9 SSW 39 59 21 32 1005.8 1005.8 4.0
13/05:30am 14.2 6.6 11.9 86 1.2 SSW 43 59 23 32 1005.6 1005.6 4.0
13/05:16am 14.5 7.1 12.5 88 1.1 SSW 43 61 23 33 1005.2 1005.2 4.0
13/05:00am 14.5 7.2 12.9 90 0.9 SSW 43 54 23 29 1005.0 1005.0 3.6
13/04:38am 15.2 9.9 13.2 88 1.1 SSW 33 52 18 28 1004.6 1004.6 1.6
13/04:30am 15.2 9.6 13.4 89 1.0 SSW 35 50 19 27 1004.7 1004.7 1.4
13/04:14am 15.9 11.3 13.4 85 1.4 SSW 30 48 16 26 1004.5 1004.5 1.0
13/04:00am 16.2 11.2 13.3 83 1.6 SSW 32 43 17 23 1004.7 1004.7 1.0
13/03:47am 16.6 10.5 13.1 80 2.0 SW 37 57 20 31 1004.5 1004.5 1.0
13/03:30am 16.8 11.6 13.3 80 2.0 SW 33 46 18 25 1004.7 1004.7 1.0
13/03:00am 16.9 11.4 13.6 81 1.9 SW 35 44 19 24 1004.6 1004.6 1.0
13/02:30am 17.0 12.9 14.8 87 1.3 SW 30 46 16 25 1004.6 1004.6 1.0
13/02:29am 16.8 12.6 14.6 87 1.3 SW 30 46 16 25 1004.6 1004.6 1.0
13/02:12am 16.6 12.1 15.0 90 0.9 SW 32 39 17 21 1004.8 1004.8 1.0
13/02:00am 16.7 11.9 14.7 88 1.2 SW 33 43 18 23 1004.8 1004.8 1.0
13/01:58am 16.9 12.4 14.9 88 1.2 SW 32 43 17 23 1004.9 1004.9 1.0
13/01:55am 17.0 12.5 15.0 88 1.2 SW 32 39 17 21 1004.9 1004.9 1.0
13/01:47am 17.3 12.8 14.8 85 1.4 SW 32 39 17 21 1005.0 1005.0 1.0
13/01:31am 17.5 13.8 15.0 85 1.5 SW 28 37 15 20 1004.9 1004.9 1.0
13/01:30am 17.4 13.6 14.7 84 1.6 SW 28 37 15 20 1004.9 1004.9 1.0
13/01:00am 18.2 14.0 14.7 80 2.0 SW 30 35 16 19 1004.9 1004.9 1.0
13/12:30am 18.2 13.7 14.9 81 1.9 SW 32 41 17 22 1004.7 1004.7 1.0
13/12:00am 18.4 16.0 15.5 83 1.7 SSW 22 28 12 15 1004.5 1004.5 1.0
 
Date/Time
CDT
Temp
°C
App
Temp
°C
Dew
Point
°C
Rel
Hum
%
Delta-T
°C
Wind Press
QNH
hPa
Press
MSL
hPa
Rain since
9am
mm
Dir  Spd
km/h
Gust
km/h
Spd
kts
Gust
kts
12/11:30pm 18.4 13.6 15.6 84 1.7 SSW 35 52 19 28 1004.4 1004.4 1.0
12/11:25pm 18.5 13.7 15.6 83 1.7 SSW 35 52 19 28 1004.2 1004.2 1.0
12/11:06pm 18.9 15.6 16.9 88 1.2 SSW 30 41 16 22 1004.2 1004.2 0.6
12/11:04pm 19.0 15.3 17.0 88 1.2 SSW 32 37 17 20 1004.1 1004.1 0.6
12/11:00pm 19.0 15.3 17.0 88 1.2 SSW 32 37 17 20 1004.0 1004.0 0.6
12/10:52pm 18.8 15.0 16.6 87 1.3 SSW 32 39 17 21 1004.1 1004.1 0.6
12/10:30pm 20.9 15.5 15.9 73 3.0 SSW 39 52 21 28 1003.9 1003.9 0.0
12/10:09pm 22.5 18.7 14.6 61 4.7 SW 28 54 15 29 1003.2 1003.2 0.0
12/10:00pm 23.0 20.1 15.1 61 4.7 SW 24 30 13 16 1003.1 1003.1 0.0
12/09:30pm 22.9 20.0 15.2 62 4.6 SW 24 32 13 17 1002.9 1002.9 0.0
12/09:00pm 22.7 17.9 15.5 64 4.3 SW 35 44 19 24 1002.4 1002.4 0.0
12/08:30pm 25.6 22.9 14.7 51 6.6 WSW 22 32 12 17 1001.3 1001.3 0.0
12/08:00pm 27.3 25.6 15.7 49 7.1 WSW 19 26 10 14 1000.6 1000.6 0.0
12/07:30pm 30.1 27.2 13.0 35 10.2 NNW 20 28 11 15 1000.5 1000.5 0.0
12/07:00pm 30.2 29.1 13.0 34 10.2 NNE 11 17 6 9 1000.2 1000.2 0.0
12/06:30pm 29.9 27.9 12.8 35 10.2 NNE 15 19 8 10 1000.6 1000.6 0.0
12/06:00pm 30.5 28.3 13.3 35 10.3 N 17 24 9 13 1000.9 1000.9 0.0
12/05:30pm 29.6 27.0 13.8 38 9.5 NNE 20 28 11 15 1001.2 1001.2 0.0
12/05:00pm 28.2 25.3 15.1 44 8.0 N 24 32 13 17 1001.6 1001.6 0.0
12/04:30pm 26.6 23.7 16.2 52 6.4 N 26 35 14 19 1001.9 1001.9 0.0
12/04:00pm 28.5 22.7 12.8 38 9.2 NNW 35 50 19 27 1002.3 1002.3 0.0
12/03:30pm 30.3 23.2 12.2 33 10.7 NNW 41 50 22 27 1002.3 1002.3 0.0
12/03:15pm 32.5 27.0 10.5 26 12.7 WNW 30 44 16 24 1002.2 1002.2 0.0
12/03:00pm 33.8 29.5 7.7 20 14.5 WSW 20 32 11 17 1002.0 1002.0 0.0
12/02:30pm 33.4 29.0 7.4 20 14.4 W 20 28 11 15 1002.4 1002.4 0.0
12/02:00pm 33.4 29.4 8.1 21 14.1 W 19 26 10 14 1002.9 1002.9 0.0
12/01:30pm 32.2 29.2 9.1 24 13.1 WSW 15 24 8 13 1003.3 1003.3 0.0
12/01:00pm 31.6 28.7 9.8 26 12.4 W 15 20 8 11 1003.5 1003.5 0.0
12/12:30pm 31.9 28.4 8.8 24 13.0 W 17 22 9 12 1003.8 1003.8 0.0
12/12:00pm 31.2 29.3 10.5 28 11.9 WNW 11 19 6 10 1004.0 1004.0 0.0
12/11:30am 31.3 29.4 10.6 28 11.9 NNW 11 17 6 9 1004.3 1004.3 0.0
12/11:00am 31.6 30.2 10.9 28 12.0 NW 9 15 5 8 1004.6 1004.6 0.0
12/10:30am 30.3 29.1 10.3 29 11.4 WNW 7 13 4 7 1004.8 1004.8 0.0
12/10:00am 30.3 27.7 10.8 30 11.2 NNW 15 20 8 11 1005.2 1005.2 0.0
12/09:30am 29.9 27.2 10.5 30 11.1 NNW 15 20 8 11 1005.4 1005.4 0.0
12/09:00am 28.8 26.9 10.5 32 10.4 NNE 11 15 6 8 1005.4 1005.4 0.0
12/08:30am 27.8 24.9 9.6 32 10.1 NE 15 17 8 9 1005.6 1005.6 0.0
12/08:00am 26.2 23.2 9.1 34 9.3 ENE 15 19 8 10 1005.5 1005.5 0.0
12/07:30am 25.1 21.9 8.6 35 8.9 ENE 15 17 8 9 1005.4 1005.4 0.0
12/07:00am 23.7 20.9 8.6 38 8.1 ENE 13 17 7 9 1005.3 1005.3 0.0
12/06:30am 22.4 20.4 8.5 41 7.4 NE 9 11 5 6 1005.6 1005.6 0.0
12/06:00am 21.9 20.2 8.4 42 7.1 ENE 7 9 4 5 1005.3 1005.3 0.0
12/05:30am 20.4 19.0 8.7 47 6.2 NNW 6 6 3 3 1005.1 1005.1 0.0
12/05:00am 20.2 18.5 8.5 47 6.1 WSW 7 9 4 5 1005.1 1005.1 0.0
12/04:30am 20.9 19.2 8.2 44 6.6 WNW 7 13 4 7 1005.2 1005.2 0.0
12/04:00am 23.3 21.0 7.4 36 8.3 E 9 11 5 6 1005.0 1005.0 0.0
12/03:30am 21.4 19.4 8.7 44 6.7 NNE 9 11 5 6 1005.5 1005.5 0.0
12/03:00am 22.8 21.1 8.5 40 7.6 NNE 7 9 4 5 1005.7 1005.7 0.0
12/02:30am 23.0 20.2 8.7 40 7.6 NNW 13 15 7 8 1006.0 1006.0 0.0
12/02:00am 25.6 22.3 6.3 29 10.0 NE 13 17 7 9 1006.2 1006.2 0.0
12/01:30am 26.1 22.5 6.7 29 10.2 ENE 15 19 8 10 1006.3 1006.3 0.0
12/01:00am 24.9 23.0 7.5 33 9.2 NW 7 11 4 6 1006.7 1006.7 0.0
12/12:30am 25.1 22.8 7.3 32 9.4 WSW 9 11 5 6 1007.1 1007.1 0.0
12/12:00am 27.1 26.0 7.0 28 10.7 NNE 2 11 1 6 1007.4 1007.4 0.0
 
Date/Time
CDT
Temp
°C
App
Temp
°C
Dew
Point
°C
Rel
Hum
%
Delta-T
°C
Wind Press
QNH
hPa
Press
MSL
hPa
Rain since
9am
mm
Dir  Spd
km/h
Gust
km/h
Spd
kts
Gust
kts
11/11:30pm 27.6 24.8 6.9 27 11.0 ESE 11 19 6 10 1007.9 1007.9 0.0
11/11:00pm 27.8 25.3 6.6 26 11.2 ESE 9 13 5 7 1008.0 1008.0 0.0
11/10:30pm 27.8 24.5 6.6 26 11.2 ESE 13 20 7 11 1008.1 1008.1 0.0
11/10:00pm 27.8 24.7 7.1 27 11.0 ESE 13 19 7 10 1008.4 1008.4 0.0
11/09:30pm 27.8 24.4 7.6 28 10.9 ESE 15 20 8 11 1008.5 1008.5 0.0
11/09:00pm 28.2 25.3 8.0 28 11.0 ESE 13 17 7 9 1008.5 1008.5 0.0
11/08:30pm 28.9 25.4 8.6 28 11.2 ESE 17 24 9 13 1008.7 1008.6 0.0
11/08:00pm 30.7 27.5 8.4 25 12.3 E 15 24 8 13 1008.4 1008.4 0.0
11/07:30pm 32.1 28.7 7.7 22 13.5 ENE 15 24 8 13 1008.3 1008.3 0.0
11/07:00pm 32.4 28.5 7.3 21 13.7 ENE 17 24 9 13 1008.4 1008.4 0.0
11/06:30pm 32.8 28.9 6.9 20 14.1 ENE 17 24 9 13 1008.8 1008.7 0.0

Latest Capital City Observations: Canberra | Sydney | Melbourne | Brisbane | Adelaide | Perth | Hobart | Darwin

Other Formats:

Comma delimited format used in spreadsheet applications
http://www.bom.gov.au/fwo/IDS60901/IDS60901.95676.axf

JavaScript Object Notation format (JSON) in row-major order
http://www.bom.gov.au/fwo/IDS60901/IDS60901.95676.json